Time;durP1;ratioP1;P1;durP2;ratioP2;P2;SDS_P1;SDS_P2;PMS_P1;PMS_P2;Temp;Humidity;BMP_temperature;BMP_pressure;BME280_temperature;BME280_humidity;BME280_pressure;Samples;Min_cycle;Max_cycle;Signal;HPM_P1;HPM_P2
2021/03/24 00:02:17;;;;;;;93.80;40.55;;;7.80;97.70;;;;;;5054522;28;20454;-87
2021/03/24 00:04:43;;;;;;;91.88;37.83;;;7.80;98.00;;;;;;5053622;28;20049;-87
2021/03/24 00:07:08;;;;;;;88.80;39.78;;;7.80;97.70;;;;;;5053578;28;20640;-87
2021/03/24 00:09:34;;;;;;;91.88;39.92;;;7.80;97.70;;;;;;5054213;28;20064;-87
2021/03/24 00:12:00;;;;;;;97.60;39.63;;;7.80;97.80;;;;;;5054277;28;20111;-88
2021/03/24 00:14:26;;;;;;;94.30;40.30;;;7.80;97.80;;;;;;5055143;28;20106;-86
2021/03/24 00:16:52;;;;;;;93.50;41.75;;;7.80;97.90;;;;;;5054379;28;20029;-87
2021/03/24 00:19:18;;;;;;;94.85;39.95;;;7.90;97.90;;;;;;5054227;28;20041;-87
2021/03/24 00:21:43;;;;;;;103.97;40.67;;;7.90;98.00;;;;;;5054378;28;20064;-85
2021/03/24 00:24:09;;;;;;;97.20;41.28;;;7.90;98.10;;;;;;5054954;28;20052;-86
2021/03/24 00:26:36;;;;;;;96.93;41.88;;;7.80;98.00;;;;;;5052906;28;20036;-86
2021/03/24 00:29:02;;;;;;;100.25;41.20;;;7.80;98.10;;;;;;5052729;28;20059;-88
2021/03/24 00:31:28;;;;;;;93.80;41.08;;;7.90;98.20;;;;;;5054376;28;20350;-89
2021/03/24 00:33:53;;;;;;;93.57;41.15;;;7.80;98.10;;;;;;5054114;28;20539;-88
2021/03/24 00:36:19;;;;;;;95.88;42.15;;;7.80;98.20;;;;;;5053624;28;20466;-86
2021/03/24 00:38:45;;;;;;;89.63;41.05;;;7.80;98.20;;;;;;5055973;28;20447;-87
2021/03/24 00:41:12;;;;;;;93.20;42.45;;;7.80;98.20;;;;;;5054276;28;20044;-87
2021/03/24 00:43:38;;;;;;;88.03;39.30;;;7.80;98.20;;;;;;5054351;28;20087;-86
2021/03/24 00:46:04;;;;;;;95.97;42.20;;;7.90;98.30;;;;;;5059856;28;20053;-87
2021/03/24 00:48:33;;;;;;;104.25;42.53;;;7.80;98.20;;;;;;5058109;28;20407;-87
2021/03/24 00:50:59;;;;;;;101.70;42.90;;;7.80;98.30;;;;;;5060350;28;20028;-89
2021/03/24 00:53:25;;;;;;;90.78;40.72;;;7.70;98.20;;;;;;5055453;28;20100;-89
2021/03/24 00:55:52;;;;;;;108.07;43.50;;;7.60;98.30;;;;;;5054544;28;20033;-87
2021/03/24 00:58:18;;;;;;;94.40;43.00;;;7.60;98.40;;;;;;5051010;28;20044;-85
2021/03/24 01:00:45;;;;;;;103.05;42.45;;;7.60;98.50;;;;;;5051286;28;20025;-87
2021/03/24 01:03:12;;;;;;;106.45;43.70;;;7.60;98.60;;;;;;5052876;28;20400;-86
2021/03/24 01:05:39;;;;;;;95.47;42.63;;;7.60;98.60;;;;;;5051013;28;20167;-86
2021/03/24 01:08:34;;;;;;;95.93;41.60;;;7.70;98.70;;;;;;5050774;28;20040;-86
2021/03/24 01:11:01;;;;;;;100.35;42.63;;;7.70;98.70;;;;;;5038198;28;20052;-86
2021/03/24 01:13:27;;;;;;;104.57;43.42;;;7.70;98.70;;;;;;5051566;28;20033;-86
2021/03/24 01:15:53;;;;;;;102.60;42.65;;;7.70;98.60;;;;;;5052307;28;20041;-87
2021/03/24 01:18:21;;;;;;;91.55;41.05;;;7.70;98.60;;;;;;5054500;28;20099;-84
2021/03/24 01:20:47;;;;;;;98.57;42.78;;;7.70;98.60;;;;;;5035817;28;20026;-85
2021/03/24 01:23:15;;;;;;;95.78;42.92;;;7.70;98.60;;;;;;5047139;28;20079;-87
2021/03/24 01:25:42;;;;;;;96.72;42.05;;;7.80;98.50;;;;;;5050197;28;20033;-85
2021/03/24 01:28:14;;;;;;;100.78;44.45;;;7.80;98.50;;;;;;5044344;28;20037;-86
2021/03/24 01:30:40;;;;;;;94.07;41.97;;;7.80;98.50;;;;;;5033345;28;20104;-85
2021/03/24 01:33:06;;;;;;;101.60;42.92;;;7.80;98.50;;;;;;5053185;28;20519;-88
2021/03/24 01:35:34;;;;;;;100.65;43.55;;;7.90;98.50;;;;;;5050279;28;20069;-87
2021/03/24 01:37:59;;;;;;;86.88;41.95;;;7.90;98.40;;;;;;5055636;28;20569;-88
2021/03/24 01:40:43;;;;;;;100.53;41.15;;;8.00;98.30;;;;;;5054202;28;20120;-85
2021/03/24 01:43:20;;;;;;;86.72;40.65;;;8.00;98.30;;;;;;5054977;28;20041;-87
2021/03/24 01:45:45;;;;;;;92.90;41.78;;;8.00;98.20;;;;;;5057893;28;20041;-88
2021/03/24 01:48:14;;;;;;;96.53;41.95;;;8.00;98.30;;;;;;5059737;28;20126;-88
2021/03/24 01:50:40;;;;;;;97.30;42.88;;;8.00;98.30;;;;;;5056670;28;20474;-86
2021/03/24 01:53:07;;;;;;;83.45;40.58;;;8.00;98.20;;;;;;5054973;28;20033;-86
2021/03/24 01:55:33;;;;;;;89.50;43.13;;;8.10;98.10;;;;;;5054676;28;20491;-87
2021/03/24 01:57:58;;;;;;;82.63;40.25;;;8.10;98.00;;;;;;5054606;28;20025;-87
2021/03/24 02:00:33;;;;;;;93.18;42.28;;;8.10;97.90;;;;;;5055851;28;20089;-87
2021/03/24 02:02:59;;;;;;;88.53;39.70;;;8.20;97.90;;;;;;5058496;28;20032;-88
2021/03/24 02:05:27;;;;;;;84.72;39.97;;;8.10;98.10;;;;;;5055661;28;20037;-87
2021/03/24 02:08:26;;;;;;;84.53;40.40;;;8.10;98.00;;;;;;5056736;28;20071;-87
2021/03/24 02:10:57;;;;;;;83.20;41.45;;;8.10;98.10;;;;;;5056560;28;20171;-88
2021/03/24 02:13:35;;;;;;;85.75;40.17;;;8.20;98.00;;;;;;5056927;28;20182;-87
2021/03/24 02:16:06;;;;;;;85.85;41.08;;;8.20;97.80;;;;;;5057563;28;20037;-86
2021/03/24 02:18:34;;;;;;;88.65;40.67;;;8.20;97.90;;;;;;5055014;28;20151;-87
2021/03/24 02:21:15;;;;;;;82.70;39.75;;;8.20;97.70;;;;;;5057758;28;20596;-88
2021/03/24 02:23:53;;;;;;;88.65;41.60;;;8.20;97.80;;;;;;5056815;28;20041;-88
2021/03/24 02:26:26;;;;;;;;;;;8.20;97.70;;;;;;5056363;28;20029;-87
2021/03/24 02:28:55;;;;;;;82.65;38.70;;;8.10;97.60;;;;;;5055828;28;20356;-89
2021/03/24 02:31:23;;;;;;;87.72;41.13;;;8.20;97.70;;;;;;5055420;28;20028;-86
2021/03/24 02:33:49;;;;;;;;;;;8.10;97.60;;;;;;5057597;28;20110;-88
2021/03/24 02:36:18;;;;;;;85.70;39.80;;;8.00;97.60;;;;;;5057170;28;19912;-87
2021/03/24 02:38:46;;;;;;;88.53;41.42;;;8.00;97.70;;;;;;5055873;28;20634;-88
2021/03/24 02:41:15;;;;;;;88.53;41.40;;;8.00;97.70;;;;;;5055130;28;20052;-88
2021/03/24 02:43:42;;;;;;;79.10;39.97;;;8.00;97.70;;;;;;5055249;28;20093;-89
2021/03/24 02:46:09;;;;;;;85.57;41.22;;;8.00;97.60;;;;;;5054936;28;20072;-88
2021/03/24 02:48:37;;;;;;;82.93;39.33;;;8.00;97.60;;;;;;5055358;28;20025;-86
2021/03/24 02:51:13;;;;;;;92.80;41.35;;;8.00;97.70;;;;;;5057619;28;20074;-88
2021/03/24 02:53:41;;;;;;;85.15;38.10;;;8.00;97.60;;;;;;5055440;28;20040;-88
2021/03/24 02:56:10;;;;;;;85.00;40.75;;;8.00;97.50;;;;;;5053157;28;20203;-86
2021/03/24 02:58:38;;;;;;;85.70;40.00;;;8.00;97.60;;;;;;5053449;28;20132;-86
2021/03/24 03:01:11;;;;;;;82.75;40.50;;;7.90;97.60;;;;;;5052762;28;20044;-87
2021/03/24 03:03:42;;;;;;;90.25;42.03;;;8.00;97.70;;;;;;5054888;28;20060;-86
2021/03/24 03:06:14;;;;;;;84.53;40.97;;;8.00;97.60;;;;;;5056494;28;20120;-87
2021/03/24 03:08:56;;;;;;;89.03;41.47;;;7.90;97.90;;;;;;5055231;28;20140;-86
2021/03/24 03:11:39;;;;;;;93.95;42.25;;;7.90;97.70;;;;;;5056197;28;20041;-86
2021/03/24 03:14:30;;;;;;;85.88;40.83;;;7.90;97.80;;;;;;5053792;28;20284;-86
2021/03/24 03:17:09;;;;;;;90.10;40.88;;;7.90;97.80;;;;;;5039428;28;20029;-87
2021/03/24 03:19:45;;;;;;;85.80;41.05;;;7.90;97.70;;;;;;5045140;28;20029;-87
2021/03/24 03:22:22;;;;;;;88.05;40.50;;;7.90;97.80;;;;;;5054477;28;20033;-87
2021/03/24 03:24:57;;;;;;;90.18;42.20;;;8.00;97.80;;;;;;5055844;28;20033;-88
2021/03/24 03:27:26;;;;;;;89.72;40.95;;;8.00;97.80;;;;;;5054654;28;20021;-88
2021/03/24 03:29:57;;;;;;;92.32;42.05;;;8.00;97.80;;;;;;5037520;28;20398;-88
2021/03/24 03:32:24;;;;;;;85.35;42.67;;;8.00;97.70;;;;;;5053385;28;20067;-88
2021/03/24 03:34:54;;;;;;;91.18;41.70;;;8.10;97.80;;;;;;5054294;28;20052;-87
2021/03/24 03:37:21;;;;;;;95.20;43.65;;;8.10;97.70;;;;;;5052781;28;20134;-86
2021/03/24 03:39:48;;;;;;;83.63;39.78;;;8.00;97.70;;;;;;5050957;28;20467;-83
2021/03/24 03:42:15;;;;;;;86.88;40.45;;;8.10;97.80;;;;;;5051413;28;20067;-84
2021/03/24 03:44:43;;;;;;;85.10;41.80;;;8.10;97.70;;;;;;5051428;28;20068;-85
2021/03/24 03:47:11;;;;;;;95.93;42.87;;;8.20;97.80;;;;;;5049947;28;20065;-86
2021/03/24 03:49:40;;;;;;;91.60;43.17;;;8.10;97.80;;;;;;5050220;28;20029;-84
2021/03/24 03:52:08;;;;;;;89.93;43.60;;;8.10;97.80;;;;;;5049661;28;20094;-83
2021/03/24 03:54:38;;;;;;;93.88;44.10;;;8.10;97.80;;;;;;5049692;28;20033;-84
2021/03/24 03:57:26;;;;;;;82.22;41.28;;;8.10;97.80;;;;;;5051607;28;20025;-85
2021/03/24 04:00:06;;;;;;;88.30;41.95;;;8.10;97.90;;;;;;5050867;28;20084;-82
2021/03/24 04:02:45;;;;;;;94.88;43.53;;;8.10;97.90;;;;;;5051290;28;20059;-85
2021/03/24 04:05:17;;;;;;;93.25;42.28;;;8.10;97.90;;;;;;5035411;28;20041;-83
2021/03/24 04:07:48;;;;;;;99.18;43.72;;;8.10;98.00;;;;;;5040474;28;20029;-86
2021/03/24 04:10:14;;;;;;;95.15;43.83;;;8.10;98.00;;;;;;5050236;28;20037;-85
2021/03/24 04:12:40;;;;;;;92.05;44.55;;;8.10;98.10;;;;;;5050595;28;20091;-83
2021/03/24 04:15:18;;;;;;;90.00;43.35;;;8.10;98.00;;;;;;5053339;28;20021;-84
2021/03/24 04:17:48;;;;;;;96.82;44.60;;;8.10;98.10;;;;;;5054331;28;20033;-85
2021/03/24 04:20:17;;;;;;;90.72;44.25;;;8.20;98.00;;;;;;5056023;28;20033;-85
2021/03/24 04:22:47;;;;;;;91.10;44.00;;;8.10;98.00;;;;;;5056008;28;20033;-85
2021/03/24 04:25:18;;;;;;;106.80;45.88;;;8.10;98.10;;;;;;5059625;28;20056;-86
2021/03/24 04:27:47;;;;;;;103.47;46.25;;;8.10;98.10;;;;;;5053769;28;20048;-84
2021/03/24 04:30:15;;;;;;;96.63;46.22;;;8.10;98.20;;;;;;5052932;28;20035;-84
2021/03/24 04:32:41;;;;;;;91.80;44.17;;;8.10;98.20;;;;;;5053511;28;20037;-84
2021/03/24 04:35:12;;;;;;;94.47;45.78;;;8.20;98.30;;;;;;5053838;28;20520;-84
2021/03/24 04:37:44;;;;;;;100.53;46.75;;;8.20;98.30;;;;;;5039741;28;20115;-83
2021/03/24 04:40:31;;;;;;;98.47;46.75;;;8.20;98.20;;;;;;5031131;28;20034;-83
2021/03/24 04:43:07;;;;;;;102.38;47.00;;;8.20;98.30;;;;;;5034887;28;20040;-83
2021/03/24 04:45:43;;;;;;;99.03;45.15;;;8.10;98.30;;;;;;5050391;28;20047;-83
2021/03/24 04:48:21;;;;;;;98.68;48.10;;;8.10;98.30;;;;;;5051685;28;20021;-85
2021/03/24 04:50:57;;;;;;;105.47;47.40;;;8.20;98.40;;;;;;5049200;28;20063;-85
2021/03/24 04:53:25;;;;;;;102.38;47.42;;;8.20;98.40;;;;;;5049113;28;20378;-84
2021/03/24 04:55:53;;;;;;;97.80;46.78;;;8.20;98.40;;;;;;5049830;28;20057;-85
2021/03/24 04:58:31;;;;;;;104.90;47.20;;;8.30;98.40;;;;;;5049595;28;20094;-88
2021/03/24 05:01:32;;;;;;;104.50;48.08;;;8.30;98.30;;;;;;5053542;28;20051;-87
2021/03/24 05:04:03;;;;;;;100.80;47.67;;;8.10;98.30;;;;;;5042117;28;20025;-86
2021/03/24 05:06:36;;;;;;;97.90;46.88;;;8.20;98.40;;;;;;5052928;28;20086;-88
2021/03/24 05:09:05;;;;;;;99.43;47.33;;;8.20;98.40;;;;;;5054076;28;20087;-88
2021/03/24 05:11:33;;;;;;;105.93;47.13;;;8.20;98.40;;;;;;5051506;28;20497;-89
2021/03/24 05:14:21;;;;;;;;;;;8.20;98.30;;;;;;5050797;28;20025;-84
2021/03/24 05:16:50;;;;;;;100.82;47.42;;;8.20;98.40;;;;;;5051294;28;19960;-86
2021/03/24 05:19:21;;;;;;;104.75;49.20;;;8.20;98.40;;;;;;5049731;28;20033;-86
2021/03/24 05:21:50;;;;;;;109.35;49.15;;;8.20;98.30;;;;;;5050327;28;20036;-85
2021/03/24 05:24:21;;;;;;;108.10;48.47;;;8.10;98.40;;;;;;5051386;28;20025;-87
2021/03/24 05:27:15;;;;;;;109.28;51.72;;;8.10;98.40;;;;;;5051930;28;20033;-87
2021/03/24 05:29:50;;;;;;;106.55;51.95;;;8.10;98.30;;;;;;5049612;28;20370;-87
2021/03/24 05:32:41;;;;;;;104.10;49.45;;;8.10;98.20;;;;;;5049838;28;20122;-85
2021/03/24 05:35:33;;;;;;;108.80;52.80;;;8.10;98.40;;;;;;5050492;28;20029;-85
2021/03/24 05:38:13;;;;;;;106.25;51.00;;;8.10;98.30;;;;;;5050325;28;20550;-86
2021/03/24 05:41:21;;;;;;;112.07;52.15;;;8.10;98.40;;;;;;5050459;28;20041;-86
2021/03/24 05:44:15;;;;;;;105.97;51.50;;;8.10;98.30;;;;;;5043728;28;20052;-87
2021/03/24 05:46:55;;;;;;;105.63;51.63;;;8.10;98.30;;;;;;5051043;28;20124;-87
2021/03/24 05:49:44;;;;;;;113.03;52.83;;;8.00;98.30;;;;;;5049777;28;20089;-87
2021/03/24 05:52:29;;;;;;;107.32;52.58;;;8.00;98.20;;;;;;5050735;28;20068;-89
2021/03/24 05:55:22;;;;;;;108.35;52.83;;;8.00;98.20;;;;;;5053196;28;20033;-88
2021/03/24 05:58:26;;;;;;;102.45;49.25;;;7.90;98.20;;;;;;5051160;28;20029;-91
2021/03/24 06:01:16;;;;;;;111.10;54.33;;;7.90;98.20;;;;;;5049034;28;20045;-87
2021/03/24 06:04:07;;;;;;;109.13;53.10;;;7.90;98.20;;;;;;5050749;28;20040;-86
2021/03/24 06:06:50;;;;;;;117.82;55.05;;;7.90;98.20;;;;;;5051033;28;20024;-87
2021/03/24 06:09:54;;;;;;;118.15;54.78;;;7.90;98.10;;;;;;5051266;28;20033;-76
2021/03/24 06:12:34;;;;;;;116.78;52.70;;;7.90;98.10;;;;;;5065327;28;20033;-88
2021/03/24 06:15:07;;;;;;;101.00;50.85;;;7.80;97.90;;;;;;5051037;28;20033;-87
2021/03/24 06:17:57;;;;;;;102.35;52.85;;;7.80;97.90;;;;;;5051513;28;20041;-86
2021/03/24 06:20:32;;;;;;;104.38;51.47;;;7.80;97.80;;;;;;5051514;28;20395;-85
2021/03/24 06:23:32;;;;;;;101.95;51.40;;;7.80;97.70;;;;;;5055643;28;20029;-89
2021/03/24 06:26:13;;;;;;;103.55;51.83;;;7.80;97.70;;;;;;5059714;28;20013;-90
2021/03/24 06:28:58;;;;;;;104.25;49.78;;;7.80;97.60;;;;;;5056516;28;20100;-88
2021/03/24 06:31:46;;;;;;;100.25;51.38;;;7.90;97.60;;;;;;5056628;28;20037;-88
2021/03/24 06:34:47;;;;;;;105.55;50.72;;;7.90;97.60;;;;;;5056722;28;20045;-86
2021/03/24 06:37:45;;;;;;;103.22;51.33;;;7.90;97.50;;;;;;5057976;28;20065;-87
2021/03/24 06:40:20;;;;;;;101.97;50.88;;;7.90;97.30;;;;;;5056382;28;20029;-86
2021/03/24 06:43:17;;;;;;;103.00;50.92;;;8.00;97.20;;;;;;5059081;28;20029;-88
2021/03/24 06:46:14;;;;;;;101.17;49.40;;;8.00;97.00;;;;;;5056141;28;20037;-89
2021/03/24 06:48:48;;;;;;;105.15;49.35;;;8.00;96.90;;;;;;5055866;28;20095;-86
2021/03/24 06:51:58;;;;;;;105.50;50.45;;;8.10;96.90;;;;;;5058998;28;20463;-84
2021/03/24 06:54:46;;;;;;;99.95;49.33;;;8.20;96.90;;;;;;5054387;28;20062;-87
2021/03/24 06:57:49;;;;;;;95.45;48.40;;;8.20;96.80;;;;;;5058263;28;20398;-85
2021/03/24 07:00:45;;;;;;;92.50;46.58;;;8.30;96.60;;;;;;5056308;28;20118;-85
2021/03/24 07:03:48;;;;;;;94.00;46.92;;;8.40;96.50;;;;;;5051536;28;20140;-84
2021/03/24 07:06:17;;;;;;;98.93;49.08;;;8.50;96.20;;;;;;5035127;28;20064;-88
2021/03/24 07:09:12;;;;;;;93.32;46.45;;;8.50;96.20;;;;;;5017912;28;20038;-86
2021/03/24 07:11:58;;;;;;;99.22;47.05;;;8.60;96.10;;;;;;5052570;28;20120;-88
2021/03/24 07:14:46;;;;;;;99.30;46.92;;;8.60;95.90;;;;;;5037788;28;20030;-89
2021/03/24 07:17:25;;;;;;;89.53;46.28;;;8.70;95.80;;;;;;5037656;28;20053;-88
2021/03/24 07:20:19;;;;;;;85.57;44.95;;;8.80;95.80;;;;;;5038063;28;20499;-88
2021/03/24 07:22:53;;;;;;;93.80;45.65;;;8.80;95.60;;;;;;5025711;28;20613;-88
2021/03/24 07:25:41;;;;;;;92.72;46.47;;;8.90;95.40;;;;;;5016909;28;20061;-87
2021/03/24 07:28:13;;;;;;;94.75;48.28;;;9.00;95.20;;;;;;5018506;28;20483;-87
2021/03/24 07:31:05;;;;;;;93.10;44.17;;;9.10;95.10;;;;;;5018999;28;20064;-88
2021/03/24 07:33:47;;;;;;;89.95;42.85;;;9.20;95.10;;;;;;5039872;28;20052;-89
2021/03/24 07:36:55;;;;;;;84.65;44.33;;;9.20;95.00;;;;;;5055236;28;20468;-87
2021/03/24 07:39:39;;;;;;;82.97;42.75;;;9.40;94.90;;;;;;5037228;28;20444;-87
2021/03/24 07:42:27;;;;;;;81.63;42.97;;;9.50;94.70;;;;;;5037996;28;20026;-87
2021/03/24 07:45:06;;;;;;;;;;;9.70;94.40;;;;;;5017249;28;20026;-87
2021/03/24 07:47:53;;;;;;;93.10;44.85;;;9.80;94.20;;;;;;5014035;28;19928;-87
2021/03/24 07:50:25;;;;;;;86.40;42.83;;;9.80;93.90;;;;;;5013004;28;20041;-86
2021/03/24 07:53:27;;;;;;;81.32;40.95;;;9.90;93.90;;;;;;5010829;28;20591;-88
2021/03/24 07:56:12;;;;;;;78.70;40.58;;;10.00;93.40;;;;;;5027552;28;20376;-89
2021/03/24 07:59:04;;;;;;;84.88;42.00;;;10.10;93.30;;;;;;5038198;28;20048;-87
2021/03/24 08:02:00;;;;;;;80.78;43.30;;;10.20;93.10;;;;;;5034551;28;20038;-89
2021/03/24 08:04:47;;;;;;;84.57;40.80;;;10.30;93.40;;;;;;5018886;28;20042;-87
2021/03/24 08:07:21;;;;;;;77.70;40.60;;;10.50;93.00;;;;;;5022065;28;20041;-87
2021/03/24 08:10:18;;;;;;;77.50;39.45;;;10.60;92.80;;;;;;5032680;28;20341;-88
2021/03/24 08:13:01;;;;;;;76.43;39.60;;;10.80;92.60;;;;;;5032744;28;20216;-88
2021/03/24 08:16:07;;;;;;;80.78;40.28;;;10.80;92.30;;;;;;5033130;28;20021;-86
2021/03/24 08:18:44;;;;;;;80.70;40.88;;;11.00;92.30;;;;;;5029783;28;20048;-86
2021/03/24 08:21:31;;;;;;;85.15;42.33;;;11.10;92.00;;;;;;5013102;28;20033;-86
2021/03/24 08:24:15;;;;;;;78.45;40.38;;;11.10;91.80;;;;;;5031475;28;20034;-87
2021/03/24 08:26:57;;;;;;;77.45;39.03;;;11.30;91.80;;;;;;5011171;28;20136;-90
2021/03/24 08:29:28;;;;;;;73.35;38.33;;;11.30;91.70;;;;;;5011452;28;20034;-87
2021/03/24 08:32:31;;;;;;;83.63;40.90;;;11.30;91.50;;;;;;5021156;28;20113;-87
2021/03/24 08:35:28;;;;;;;77.38;38.70;;;11.40;91.50;;;;;;5010855;28;20045;-85
2021/03/24 08:38:12;;;;;;;77.03;40.77;;;11.50;91.30;;;;;;5025096;28;20026;-86
2021/03/24 08:40:54;;;;;;;80.38;40.35;;;11.60;91.40;;;;;;5020699;28;20260;-85
2021/03/24 08:43:20;;;;;;;75.88;40.17;;;11.60;91.30;;;;;;5011320;28;20516;-86
2021/03/24 08:45:57;;;;;;;76.47;40.70;;;11.70;91.30;;;;;;5009007;28;20116;-84
2021/03/24 08:48:45;;;;;;;78.60;39.55;;;12.00;91.10;;;;;;5011122;28;20061;-86
2021/03/24 08:51:35;;;;;;;72.50;37.25;;;12.30;90.80;;;;;;5031602;28;20031;-88
2021/03/24 08:54:19;;;;;;;68.82;37.90;;;12.70;90.50;;;;;;5010181;28;20180;-86
2021/03/24 08:57:11;;;;;;;69.82;36.85;;;12.80;90.00;;;;;;5045305;28;20073;-86
2021/03/24 08:59:54;;;;;;;74.13;38.20;;;13.00;90.00;;;;;;5010932;28;20112;-86
2021/03/24 09:02:38;;;;;;;72.10;38.35;;;13.30;89.10;;;;;;5010329;28;20038;-88
2021/03/24 09:05:24;;;;;;;69.22;35.17;;;13.70;88.10;;;;;;5024295;28;20128;-85
2021/03/24 09:08:14;;;;;;;76.35;37.78;;;13.90;86.80;;;;;;5025223;28;20498;-86
2021/03/24 09:11:03;;;;;;;68.00;37.10;;;14.10;86.10;;;;;;5011150;28;20072;-87
2021/03/24 09:13:36;;;;;;;69.00;36.40;;;14.40;86.10;;;;;;5028682;28;20092;-82
2021/03/24 09:16:28;;;;;;;57.67;32.53;;;14.60;84.60;;;;;;5033271;28;20034;-90
2021/03/24 09:19:06;;;;;;;69.05;33.63;;;15.30;84.80;;;;;;5027951;28;20043;-79
2021/03/24 09:21:47;;;;;;;63.75;35.13;;;16.10;83.20;;;;;;5009887;28;20049;-82
2021/03/24 09:24:38;;;;;;;64.40;36.15;;;16.80;79.00;;;;;;5010828;28;20026;-79
2021/03/24 09:27:16;;;;;;;66.72;35.35;;;17.50;75.80;;;;;;5027866;28;20049;-80
2021/03/24 09:29:44;;;;;;;60.17;35.13;;;18.00;71.90;;;;;;5028778;28;20045;-78
2021/03/24 09:32:39;;;;;;;67.63;34.67;;;18.10;71.60;;;;;;5044163;28;20038;-80
2021/03/24 09:35:29;;;;;;;56.30;33.42;;;18.30;69.60;;;;;;5028347;28;20034;-82
2021/03/24 09:37:58;;;;;;;58.17;33.58;;;18.30;68.20;;;;;;5015400;28;20046;-80
2021/03/24 09:40:37;;;;;;;64.75;35.33;;;18.80;66.30;;;;;;5009352;28;20045;-78
2021/03/24 09:43:16;;;;;;;57.55;34.50;;;19.10;64.60;;;;;;5015466;28;20117;-80
2021/03/24 09:45:43;;;;;;;55.25;34.20;;;19.00;63.70;;;;;;5028672;28;20060;-79
2021/03/24 09:48:17;;;;;;;69.50;34.78;;;18.70;63.90;;;;;;5030157;28;20216;-80
2021/03/24 09:51:13;;;;;;;61.30;32.85;;;18.70;63.50;;;;;;5024053;28;20089;-78
2021/03/24 09:53:41;;;;;;;60.33;35.05;;;18.70;63.30;;;;;;5008760;28;20245;-81
2021/03/24 09:56:21;;;;;;;58.17;34.40;;;18.60;62.90;;;;;;5023004;28;20037;-81
2021/03/24 09:59:00;;;;;;;57.63;32.97;;;18.20;63.30;;;;;;5019804;28;20069;-80
2021/03/24 10:01:49;;;;;;;59.67;31.90;;;18.60;63.20;;;;;;5012623;28;20041;-81
2021/03/24 10:04:48;;;;;;;58.22;32.50;;;18.50;62.80;;;;;;5020889;28;20046;-81
2021/03/24 10:07:28;;;;;;;53.85;28.63;;;17.70;63.00;;;;;;5032796;28;20045;-80
2021/03/24 10:10:08;;;;;;;54.85;30.58;;;17.80;63.40;;;;;;5032568;28;20025;-79
2021/03/24 10:12:52;;;;;;;53.92;29.30;;;18.00;64.00;;;;;;5030232;28;20113;-79
2021/03/24 10:15:41;;;;;;;56.78;29.92;;;18.00;63.00;;;;;;5012141;28;20022;-81
2021/03/24 10:18:15;;;;;;;57.95;29.63;;;18.20;62.80;;;;;;5014005;28;20068;-80
2021/03/24 10:20:54;;;;;;;55.67;30.40;;;18.40;61.80;;;;;;5012536;28;20124;-81
2021/03/24 10:23:45;;;;;;;57.05;30.13;;;17.90;61.10;;;;;;5012779;28;20034;-79
2021/03/24 10:26:19;;;;;;;63.53;28.80;;;18.80;61.90;;;;;;5026222;28;20057;-81
2021/03/24 10:29:09;;;;;;;50.05;29.40;;;19.50;60.00;;;;;;5032135;28;20124;-81
2021/03/24 10:32:05;;;;;;;54.28;30.23;;;19.90;56.70;;;;;;5032102;28;20463;-82
2021/03/24 10:34:42;;;;;;;55.45;30.08;;;19.70;57.70;;;;;;5031273;28;20121;-79
2021/03/24 10:37:28;;;;;;;60.20;29.80;;;19.70;57.00;;;;;;5040444;28;20443;-80
2021/03/24 10:39:56;;;;;;;55.47;31.20;;;20.90;55.30;;;;;;5012711;28;20452;-80
2021/03/24 10:42:38;;;;;;;;;;;20.80;53.70;;;;;;5013289;28;20132;-80
2021/03/24 10:45:36;;;;;;;55.60;31.50;;;21.00;54.50;;;;;;5033047;28;20151;-82
2021/03/24 10:48:14;;;;;;;57.75;30.85;;;20.70;52.60;;;;;;5012002;28;20120;-80
2021/03/24 10:50:39;;;;;;;51.78;29.65;;;21.60;51.90;;;;;;5031584;28;20033;-80
2021/03/24 10:53:08;;;;;;;57.30;29.90;;;22.30;51.80;;;;;;5031814;28;20048;-84
2021/03/24 10:55:36;;;;;;;50.63;29.27;;;23.30;49.70;;;;;;5019961;28;20116;-84
2021/03/24 10:58:36;;;;;;;56.63;31.60;;;23.60;48.00;;;;;;5018524;28;20025;-84
2021/03/24 11:01:11;;;;;;;53.83;32.97;;;23.60;46.70;;;;;;5031886;28;20384;-82
2021/03/24 11:03:48;;;;;;;54.88;32.17;;;23.50;45.90;;;;;;5028861;28;20049;-85
2021/03/24 11:06:18;;;;;;;57.13;33.05;;;23.20;45.50;;;;;;5013437;28;20045;-85
2021/03/24 11:09:08;;;;;;;54.67;31.88;;;23.10;45.20;;;;;;4994323;28;20053;-81
2021/03/24 11:11:48;;;;;;;55.88;32.78;;;23.30;44.90;;;;;;5011295;28;20472;-80
2021/03/24 11:14:36;;;;;;;55.63;32.70;;;23.60;44.70;;;;;;5011586;28;20065;-88
2021/03/24 11:17:31;;;;;;;59.05;32.72;;;23.50;44.20;;;;;;5011529;28;20030;-84
2021/03/24 11:20:09;;;;;;;53.28;31.42;;;23.70;43.20;;;;;;5016961;28;20109;-83
2021/03/24 11:23:02;;;;;;;57.63;33.45;;;23.50;43.70;;;;;;5011563;28;20037;-88
2021/03/24 11:25:37;;;;;;;54.95;33.88;;;23.50;43.50;;;;;;5020694;28;20037;-85
2021/03/24 11:28:16;;;;;;;56.33;33.65;;;23.20;43.90;;;;;;5025044;28;20033;-86
2021/03/24 11:30:47;;;;;;;53.38;32.42;;;22.80;43.80;;;;;;5014774;28;20252;-87
2021/03/24 11:33:31;;;;;;;59.53;33.28;;;22.80;43.90;;;;;;5034599;28;20482;-87
2021/03/24 11:36:15;;;;;;;51.20;31.38;;;23.00;43.90;;;;;;5013556;28;20044;-83
2021/03/24 11:38:56;;;;;;;52.83;32.45;;;23.50;43.20;;;;;;5013942;28;20046;-83
2021/03/24 11:41:34;;;;;;;53.55;32.28;;;23.20;43.00;;;;;;5013845;28;20041;-85
2021/03/24 11:44:07;;;;;;;55.80;32.08;;;22.90;43.00;;;;;;5014140;28;20053;-89
2021/03/24 11:46:43;;;;;;;60.03;31.10;;;22.50;44.00;;;;;;5013119;28;20077;-88
2021/03/24 11:49:39;;;;;;;53.22;31.85;;;21.30;44.30;;;;;;5020962;28;20037;-88
2021/03/24 11:52:21;;;;;;;56.97;32.10;;;21.40;45.90;;;;;;5032489;28;20111;-87
2021/03/24 11:54:47;;;;;;;53.40;31.60;;;20.50;46.20;;;;;;5028662;28;20064;-87
2021/03/24 11:57:40;;;;;;;52.33;30.42;;;20.40;47.40;;;;;;5013780;28;20109;-87
2021/03/24 12:00:32;;;;;;;55.67;30.60;;;20.50;47.40;;;;;;5047900;28;20033;-79
2021/03/24 12:03:25;;;;;;;55.33;28.10;;;20.00;48.60;;;;;;5030897;28;20464;-83
2021/03/24 12:06:06;;;;;;;51.33;28.17;;;20.20;49.90;;;;;;5046079;28;20520;-85
2021/03/24 12:08:47;;;;;;;44.22;27.05;;;20.10;49.70;;;;;;5012860;28;20038;-86
2021/03/24 12:11:15;;;;;;;51.50;27.55;;;20.00;50.50;;;;;;5027669;28;20130;-88
2021/03/24 12:13:41;;;;;;;48.78;28.15;;;19.70;50.50;;;;;;5019686;28;20056;-84
2021/03/24 12:16:12;;;;;;;49.47;26.42;;;19.60;50.90;;;;;;5016696;28;20041;-88
2021/03/24 12:18:53;;;;;;;46.67;26.13;;;19.60;49.80;;;;;;5031416;28;20033;-87
2021/03/24 12:21:34;;;;;;;49.17;27.83;;;19.40;50.80;;;;;;5033026;28;20026;-91
2021/03/24 12:24:18;;;;;;;49.92;29.52;;;19.40;50.90;;;;;;5036569;28;20014;-92
2021/03/24 12:26:44;;;;;;;51.92;29.48;;;19.10;50.60;;;;;;5015770;28;20034;-90
2021/03/24 12:29:17;;;;;;;51.65;27.75;;;18.80;52.10;;;;;;5024991;28;20046;-91
2021/03/24 12:31:59;;;;;;;51.63;29.85;;;18.80;53.60;;;;;;5023492;28;20053;-86
2021/03/24 12:34:27;;;;;;;53.30;30.30;;;18.80;50.70;;;;;;5031534;28;20104;-83
2021/03/24 12:36:54;;;;;;;;;;;18.40;51.60;;;;;;5031548;28;20029;-84
2021/03/24 12:39:39;;;;;;;53.78;30.45;;;18.50;52.10;;;;;;5030312;28;19909;-85
2021/03/24 12:42:26;;;;;;;53.17;29.65;;;18.50;51.90;;;;;;5047716;28;20152;-86
2021/03/24 12:44:54;;;;;;;61.85;31.88;;;18.50;52.10;;;;;;5011312;28;20100;-89
2021/03/24 12:47:23;;;;;;;52.83;31.42;;;18.40;52.20;;;;;;5028638;28;20073;-87
2021/03/24 12:50:11;;;;;;;55.45;31.48;;;18.20;52.60;;;;;;5078392;27;20356;-86
2021/03/24 12:52:47;;;;;;;54.50;29.75;;;18.10;53.00;;;;;;5085170;28;20056;-86
2021/03/24 12:55:16;;;;;;;53.65;30.45;;;17.90;53.00;;;;;;5079552;28;20528;-87
2021/03/24 12:58:16;;;;;;;63.40;31.58;;;18.10;53.20;;;;;;5070396;28;20102;-84
2021/03/24 13:01:10;;;;;;;63.90;35.35;;;18.00;53.20;;;;;;5086991;28;20032;-85
2021/03/24 13:03:48;;;;;;;50.67;30.00;;;17.80;54.20;;;;;;5089114;28;20035;-85
2021/03/24 13:06:38;;;;;;;50.47;27.65;;;17.70;54.30;;;;;;5108640;28;20383;-85
2021/03/24 13:09:54;;;;;;;48.10;27.40;;;17.80;53.40;;;;;;5108114;28;20050;-88
2021/03/24 13:12:31;;;;;;;46.97;25.73;;;17.60;53.20;;;;;;5050160;27;20024;-87
2021/03/24 13:15:12;;;;;;;43.95;26.17;;;17.60;54.20;;;;;;5110207;28;20024;-86
2021/03/24 13:18:10;;;;;;;51.40;26.15;;;17.60;54.20;;;;;;5105918;28;20046;-88
2021/03/24 13:21:08;;;;;;;48.05;25.90;;;17.60;54.00;;;;;;5074299;28;20051;-85
2021/03/24 13:23:35;;;;;;;45.53;26.23;;;17.80;53.90;;;;;;5107113;28;20100;-87
2021/03/24 13:26:10;;;;;;;46.05;22.40;;;17.80;54.10;;;;;;5106776;27;20127;-86
2021/03/24 13:28:46;;;;;;;48.30;22.77;;;17.80;51.80;;;;;;5105919;28;20046;-86
2021/03/24 13:31:26;;;;;;;44.05;22.20;;;17.80;52.30;;;;;;5107175;28;20105;-86